sensor_id;sensor_type;location;lat;lon;timestamp;temperature;humidity
23738;DHT22;12049;51.068;3.688;2022-09-21T00:01:15;12.40;99.90
23738;DHT22;12049;51.068;3.688;2022-09-21T00:03:42;12.40;99.90
23738;DHT22;12049;51.068;3.688;2022-09-21T00:06:12;12.40;99.90
23738;DHT22;12049;51.068;3.688;2022-09-21T00:08:37;12.40;99.90
23738;DHT22;12049;51.068;3.688;2022-09-21T00:11:06;12.40;99.90
23738;DHT22;12049;51.068;3.688;2022-09-21T00:13:33;12.30;99.90
23738;DHT22;12049;51.068;3.688;2022-09-21T00:15:59;12.40;99.90
23738;DHT22;12049;51.068;3.688;2022-09-21T00:18:25;12.30;99.90
23738;DHT22;12049;51.068;3.688;2022-09-21T00:20:53;12.30;99.90
23738;DHT22;12049;51.068;3.688;2022-09-21T00:23:19;12.30;99.90
23738;DHT22;12049;51.068;3.688;2022-09-21T00:25:45;12.20;99.90
23738;DHT22;12049;51.068;3.688;2022-09-21T00:28:10;12.30;99.90
23738;DHT22;12049;51.068;3.688;2022-09-21T00:30:37;12.30;99.90
23738;DHT22;12049;51.068;3.688;2022-09-21T00:33:03;12.30;99.90
23738;DHT22;12049;51.068;3.688;2022-09-21T00:35:28;12.30;99.90
23738;DHT22;12049;51.068;3.688;2022-09-21T00:37:54;12.30;99.90
23738;DHT22;12049;51.068;3.688;2022-09-21T00:40:20;12.30;99.90
23738;DHT22;12049;51.068;3.688;2022-09-21T00:42:45;12.30;99.90
23738;DHT22;12049;51.068;3.688;2022-09-21T00:45:11;12.20;99.90
23738;DHT22;12049;51.068;3.688;2022-09-21T00:47:46;12.20;99.90
23738;DHT22;12049;51.068;3.688;2022-09-21T00:50:13;12.20;99.90
23738;DHT22;12049;51.068;3.688;2022-09-21T00:52:44;12.20;99.90
23738;DHT22;12049;51.068;3.688;2022-09-21T00:55:14;12.20;99.90
23738;DHT22;12049;51.068;3.688;2022-09-21T00:57:43;12.20;99.90
23738;DHT22;12049;51.068;3.688;2022-09-21T01:00:10;12.10;99.90
23738;DHT22;12049;51.068;3.688;2022-09-21T01:02:36;12.10;99.90
23738;DHT22;12049;51.068;3.688;2022-09-21T01:05:06;12.10;99.90
23738;DHT22;12049;51.068;3.688;2022-09-21T01:07:34;12.10;99.90
23738;DHT22;12049;51.068;3.688;2022-09-21T01:10:02;12.00;99.90
23738;DHT22;12049;51.068;3.688;2022-09-21T01:17:59;12.00;99.90
23738;DHT22;12049;51.068;3.688;2022-09-21T01:22:58;11.90;99.90
23738;DHT22;12049;51.068;3.688;2022-09-21T01:30:37;11.90;99.90
23738;DHT22;12049;51.068;3.688;2022-09-21T01:35:32;11.90;99.90
23738;DHT22;12049;51.068;3.688;2022-09-21T01:38:07;11.80;99.90
23738;DHT22;12049;51.068;3.688;2022-09-21T01:40:37;11.80;99.90
23738;DHT22;12049;51.068;3.688;2022-09-21T01:43:04;11.80;99.90
23738;DHT22;12049;51.068;3.688;2022-09-21T01:45:32;11.70;99.90
23738;DHT22;12049;51.068;3.688;2022-09-21T01:47:59;11.70;99.90
23738;DHT22;12049;51.068;3.688;2022-09-21T01:50:27;11.70;99.90
23738;DHT22;12049;51.068;3.688;2022-09-21T01:53:05;11.70;99.90
23738;DHT22;12049;51.068;3.688;2022-09-21T01:55:40;11.70;99.90
23738;DHT22;12049;51.068;3.688;2022-09-21T02:01:05;11.70;99.90
23738;DHT22;12049;51.068;3.688;2022-09-21T02:03:32;11.60;99.90
23738;DHT22;12049;51.068;3.688;2022-09-21T02:05:59;11.60;99.90
23738;DHT22;12049;51.068;3.688;2022-09-21T02:08:25;11.60;99.90
23738;DHT22;12049;51.068;3.688;2022-09-21T02:10:51;11.60;99.90
23738;DHT22;12049;51.068;3.688;2022-09-21T02:13:18;11.60;99.90
23738;DHT22;12049;51.068;3.688;2022-09-21T02:18:28;11.60;99.90
23738;DHT22;12049;51.068;3.688;2022-09-21T02:20:56;11.60;99.90
23738;DHT22;12049;51.068;3.688;2022-09-21T02:23:27;11.60;99.90
23738;DHT22;12049;51.068;3.688;2022-09-21T02:26:08;11.60;99.90
23738;DHT22;12049;51.068;3.688;2022-09-21T02:28:54;11.60;99.90
23738;DHT22;12049;51.068;3.688;2022-09-21T02:33:47;11.60;99.90
23738;DHT22;12049;51.068;3.688;2022-09-21T02:36:31;11.50;99.90
23738;DHT22;12049;51.068;3.688;2022-09-21T02:39:06;11.50;99.90
23738;DHT22;12049;51.068;3.688;2022-09-21T02:42:36;11.50;99.90
23738;DHT22;12049;51.068;3.688;2022-09-21T02:44:31;11.40;99.90
23738;DHT22;12049;51.068;3.688;2022-09-21T02:47:03;11.40;99.90
23738;DHT22;12049;51.068;3.688;2022-09-21T02:49:39;11.40;99.90
23738;DHT22;12049;51.068;3.688;2022-09-21T02:52:08;11.40;99.90
23738;DHT22;12049;51.068;3.688;2022-09-21T02:54:35;11.30;99.90
23738;DHT22;12049;51.068;3.688;2022-09-21T02:57:01;11.30;99.90
23738;DHT22;12049;51.068;3.688;2022-09-21T02:59:26;11.30;99.90
23738;DHT22;12049;51.068;3.688;2022-09-21T03:01:52;11.30;99.90
23738;DHT22;12049;51.068;3.688;2022-09-21T03:04:18;11.30;99.90
23738;DHT22;12049;51.068;3.688;2022-09-21T03:06:44;11.30;99.90
23738;DHT22;12049;51.068;3.688;2022-09-21T03:09:09;11.30;99.90
23738;DHT22;12049;51.068;3.688;2022-09-21T03:11:35;11.30;99.90
23738;DHT22;12049;51.068;3.688;2022-09-21T03:14:03;11.30;99.90
23738;DHT22;12049;51.068;3.688;2022-09-21T03:16:33;11.30;99.90
23738;DHT22;12049;51.068;3.688;2022-09-21T03:18:59;11.30;99.90
23738;DHT22;12049;51.068;3.688;2022-09-21T03:21:25;11.30;99.90
23738;DHT22;12049;51.068;3.688;2022-09-21T03:23:50;11.20;99.90
23738;DHT22;12049;51.068;3.688;2022-09-21T03:26:16;11.20;99.90
23738;DHT22;12049;51.068;3.688;2022-09-21T03:28:47;11.20;99.90
23738;DHT22;12049;51.068;3.688;2022-09-21T03:31:13;11.20;99.90
23738;DHT22;12049;51.068;3.688;2022-09-21T03:33:38;11.20;99.90
23738;DHT22;12049;51.068;3.688;2022-09-21T03:36:04;11.20;99.90
23738;DHT22;12049;51.068;3.688;2022-09-21T03:38:29;11.20;99.90
23738;DHT22;12049;51.068;3.688;2022-09-21T03:40:55;11.20;99.90
23738;DHT22;12049;51.068;3.688;2022-09-21T03:43:22;11.20;99.90
23738;DHT22;12049;51.068;3.688;2022-09-21T03:45:48;11.10;99.90
23738;DHT22;12049;51.068;3.688;2022-09-21T03:48:13;11.10;99.90
23738;DHT22;12049;51.068;3.688;2022-09-21T03:50:39;11.10;99.90
23738;DHT22;12049;51.068;3.688;2022-09-21T03:53:05;11.10;99.90
23738;DHT22;12049;51.068;3.688;2022-09-21T03:55:31;11.10;99.90
23738;DHT22;12049;51.068;3.688;2022-09-21T03:57:57;11.10;99.90
23738;DHT22;12049;51.068;3.688;2022-09-21T04:00:23;11.10;99.90
23738;DHT22;12049;51.068;3.688;2022-09-21T04:02:48;11.10;99.90
23738;DHT22;12049;51.068;3.688;2022-09-21T04:05:14;11.10;99.90
23738;DHT22;12049;51.068;3.688;2022-09-21T04:07:41;11.00;99.90
23738;DHT22;12049;51.068;3.688;2022-09-21T04:10:08;11.00;99.90
23738;DHT22;12049;51.068;3.688;2022-09-21T04:12:37;11.00;99.90
23738;DHT22;12049;51.068;3.688;2022-09-21T04:15:06;11.00;99.90
23738;DHT22;12049;51.068;3.688;2022-09-21T04:17:32;11.00;99.90
23738;DHT22;12049;51.068;3.688;2022-09-21T04:19:58;11.00;99.90
23738;DHT22;12049;51.068;3.688;2022-09-21T04:22:23;11.00;99.90
23738;DHT22;12049;51.068;3.688;2022-09-21T04:24:49;11.00;99.90
23738;DHT22;12049;51.068;3.688;2022-09-21T04:27:15;11.00;99.90
23738;DHT22;12049;51.068;3.688;2022-09-21T04:29:40;11.10;99.90
23738;DHT22;12049;51.068;3.688;2022-09-21T04:32:06;11.10;99.90
23738;DHT22;12049;51.068;3.688;2022-09-21T04:34:32;11.10;99.90
23738;DHT22;12049;51.068;3.688;2022-09-21T04:36:57;11.10;99.90
23738;DHT22;12049;51.068;3.688;2022-09-21T04:39:23;11.10;99.90
23738;DHT22;12049;51.068;3.688;2022-09-21T04:41:50;11.10;99.90
23738;DHT22;12049;51.068;3.688;2022-09-21T04:44:15;11.10;99.90
23738;DHT22;12049;51.068;3.688;2022-09-21T04:46:43;11.10;99.90
23738;DHT22;12049;51.068;3.688;2022-09-21T04:49:08;11.10;99.90
23738;DHT22;12049;51.068;3.688;2022-09-21T04:51:34;11.10;99.90
23738;DHT22;12049;51.068;3.688;2022-09-21T04:54:00;11.10;99.90
23738;DHT22;12049;51.068;3.688;2022-09-21T04:56:26;11.10;99.90
23738;DHT22;12049;51.068;3.688;2022-09-21T04:58:51;11.00;99.90
23738;DHT22;12049;51.068;3.688;2022-09-21T05:01:17;11.00;99.90
23738;DHT22;12049;51.068;3.688;2022-09-21T05:03:42;11.00;99.90
23738;DHT22;12049;51.068;3.688;2022-09-21T05:06:08;11.00;99.90
23738;DHT22;12049;51.068;3.688;2022-09-21T05:08:37;11.00;99.90
23738;DHT22;12049;51.068;3.688;2022-09-21T05:11:21;11.00;99.90
23738;DHT22;12049;51.068;3.688;2022-09-21T05:13:47;10.90;99.90
23738;DHT22;12049;51.068;3.688;2022-09-21T05:16:13;10.90;99.90
23738;DHT22;12049;51.068;3.688;2022-09-21T05:18:39;10.90;99.90
23738;DHT22;12049;51.068;3.688;2022-09-21T05:21:05;10.80;99.90
23738;DHT22;12049;51.068;3.688;2022-09-21T05:23:31;10.80;99.90
23738;DHT22;12049;51.068;3.688;2022-09-21T05:25:57;10.90;99.90
23738;DHT22;12049;51.068;3.688;2022-09-21T05:28:23;10.90;99.90
23738;DHT22;12049;51.068;3.688;2022-09-21T05:33:18;10.90;99.90
23738;DHT22;12049;51.068;3.688;2022-09-21T05:35:47;10.80;99.90
23738;DHT22;12049;51.068;3.688;2022-09-21T05:38:19;10.80;99.90
23738;DHT22;12049;51.068;3.688;2022-09-21T05:40:44;10.80;99.90
23738;DHT22;12049;51.068;3.688;2022-09-21T05:43:14;10.80;99.90
23738;DHT22;12049;51.068;3.688;2022-09-21T05:45:41;10.80;99.90
23738;DHT22;12049;51.068;3.688;2022-09-21T05:50:40;10.90;99.90
23738;DHT22;12049;51.068;3.688;2022-09-21T05:53:22;10.90;99.90
23738;DHT22;12049;51.068;3.688;2022-09-21T05:55:59;10.90;99.90
23738;DHT22;12049;51.068;3.688;2022-09-21T06:03:40;10.90;99.90
23738;DHT22;12049;51.068;3.688;2022-09-21T06:06:06;10.90;99.90
23738;DHT22;12049;51.068;3.688;2022-09-21T06:08:32;10.90;99.90
23738;DHT22;12049;51.068;3.688;2022-09-21T06:10:58;10.90;99.90
23738;DHT22;12049;51.068;3.688;2022-09-21T06:13:23;11.00;99.90
23738;DHT22;12049;51.068;3.688;2022-09-21T06:15:49;11.00;99.90
23738;DHT22;12049;51.068;3.688;2022-09-21T06:18:14;11.00;99.90
23738;DHT22;12049;51.068;3.688;2022-09-21T06:20:40;11.10;99.90
23738;DHT22;12049;51.068;3.688;2022-09-21T06:23:06;11.10;99.90
23738;DHT22;12049;51.068;3.688;2022-09-21T06:25:32;11.20;99.90
23738;DHT22;12049;51.068;3.688;2022-09-21T06:28:04;11.30;99.90
23738;DHT22;12049;51.068;3.688;2022-09-21T06:30:30;11.30;99.90
23738;DHT22;12049;51.068;3.688;2022-09-21T06:32:58;11.40;99.90
23738;DHT22;12049;51.068;3.688;2022-09-21T06:35:23;11.50;99.90
23738;DHT22;12049;51.068;3.688;2022-09-21T06:37:49;11.60;99.90
23738;DHT22;12049;51.068;3.688;2022-09-21T06:40:14;11.70;99.90
23738;DHT22;12049;51.068;3.688;2022-09-21T06:42:40;11.70;99.90
23738;DHT22;12049;51.068;3.688;2022-09-21T06:45:05;11.80;99.90
23738;DHT22;12049;51.068;3.688;2022-09-21T06:47:31;11.90;99.90
23738;DHT22;12049;51.068;3.688;2022-09-21T06:49:57;11.90;99.90
23738;DHT22;12049;51.068;3.688;2022-09-21T06:52:22;12.00;99.90
23738;DHT22;12049;51.068;3.688;2022-09-21T06:54:48;12.10;99.90
23738;DHT22;12049;51.068;3.688;2022-09-21T06:57:13;12.20;99.90
23738;DHT22;12049;51.068;3.688;2022-09-21T06:59:39;12.30;99.90
23738;DHT22;12049;51.068;3.688;2022-09-21T07:02:05;12.50;99.90
23738;DHT22;12049;51.068;3.688;2022-09-21T07:04:31;12.70;99.90
23738;DHT22;12049;51.068;3.688;2022-09-21T07:06:56;12.80;99.90
23738;DHT22;12049;51.068;3.688;2022-09-21T07:09:22;12.90;99.90
23738;DHT22;12049;51.068;3.688;2022-09-21T07:11:47;13.00;99.90
23738;DHT22;12049;51.068;3.688;2022-09-21T07:14:13;13.10;99.90
23738;DHT22;12049;51.068;3.688;2022-09-21T07:16:39;13.20;99.90
23738;DHT22;12049;51.068;3.688;2022-09-21T07:19:05;13.70;99.90
23738;DHT22;12049;51.068;3.688;2022-09-21T07:21:31;14.50;99.90
23738;DHT22;12049;51.068;3.688;2022-09-21T07:23:59;15.40;99.90
23738;DHT22;12049;51.068;3.688;2022-09-21T07:26:25;16.70;99.90
23738;DHT22;12049;51.068;3.688;2022-09-21T07:28:51;18.70;99.90
23738;DHT22;12049;51.068;3.688;2022-09-21T07:31:17;20.60;99.90
23738;DHT22;12049;51.068;3.688;2022-09-21T07:33:42;22.30;99.90
23738;DHT22;12049;51.068;3.688;2022-09-21T07:36:09;23.60;99.90
23738;DHT22;12049;51.068;3.688;2022-09-21T07:38:35;24.80;99.90
23738;DHT22;12049;51.068;3.688;2022-09-21T07:41:01;25.80;99.90
23738;DHT22;12049;51.068;3.688;2022-09-21T07:43:27;26.70;99.90
23738;DHT22;12049;51.068;3.688;2022-09-21T07:45:53;27.40;99.90
23738;DHT22;12049;51.068;3.688;2022-09-21T07:48:21;28.00;99.90
23738;DHT22;12049;51.068;3.688;2022-09-21T07:50:47;28.80;99.90
23738;DHT22;12049;51.068;3.688;2022-09-21T07:53:13;29.30;99.90
23738;DHT22;12049;51.068;3.688;2022-09-21T07:55:40;29.70;99.90
23738;DHT22;12049;51.068;3.688;2022-09-21T07:58:06;30.20;99.90
23738;DHT22;12049;51.068;3.688;2022-09-21T08:00:50;30.70;99.90
23738;DHT22;12049;51.068;3.688;2022-09-21T08:03:16;31.20;99.90
23738;DHT22;12049;51.068;3.688;2022-09-21T08:05:41;31.60;99.90
23738;DHT22;12049;51.068;3.688;2022-09-21T08:08:07;32.00;99.90
23738;DHT22;12049;51.068;3.688;2022-09-21T08:10:33;32.10;99.90
23738;DHT22;12049;51.068;3.688;2022-09-21T08:12:59;32.20;99.90
23738;DHT22;12049;51.068;3.688;2022-09-21T08:15:25;32.40;99.90
23738;DHT22;12049;51.068;3.688;2022-09-21T08:17:52;32.80;99.90
23738;DHT22;12049;51.068;3.688;2022-09-21T08:20:17;33.00;99.90
23738;DHT22;12049;51.068;3.688;2022-09-21T08:22:43;33.20;99.90
23738;DHT22;12049;51.068;3.688;2022-09-21T08:25:09;33.20;98.00
23738;DHT22;12049;51.068;3.688;2022-09-21T08:27:37;33.40;98.30
23738;DHT22;12049;51.068;3.688;2022-09-21T08:30:05;33.50;97.00
23738;DHT22;12049;51.068;3.688;2022-09-21T08:32:31;33.50;96.80
23738;DHT22;12049;51.068;3.688;2022-09-21T08:34:57;33.50;96.00
23738;DHT22;12049;51.068;3.688;2022-09-21T08:37:22;33.30;95.70
23738;DHT22;12049;51.068;3.688;2022-09-21T08:39:48;33.10;95.70
23738;DHT22;12049;51.068;3.688;2022-09-21T08:44:49;31.60;96.20
23738;DHT22;12049;51.068;3.688;2022-09-21T08:47:18;30.50;97.30
23738;DHT22;12049;51.068;3.688;2022-09-21T08:49:46;29.50;99.00
23738;DHT22;12049;51.068;3.688;2022-09-21T08:52:13;28.40;99.80
23738;DHT22;12049;51.068;3.688;2022-09-21T08:57:12;26.20;99.90
23738;DHT22;12049;51.068;3.688;2022-09-21T08:59:44;25.10;99.90
23738;DHT22;12049;51.068;3.688;2022-09-21T09:15:16;21.70;99.90
23738;DHT22;12049;51.068;3.688;2022-09-21T09:20:20;22.20;99.90
23738;DHT22;12049;51.068;3.688;2022-09-21T09:22:47;23.30;99.90
23738;DHT22;12049;51.068;3.688;2022-09-21T09:25:16;24.70;99.90
23738;DHT22;12049;51.068;3.688;2022-09-21T09:27:42;26.30;99.90
23738;DHT22;12049;51.068;3.688;2022-09-21T09:35:15;28.90;99.90
23738;DHT22;12049;51.068;3.688;2022-09-21T09:37:43;29.70;99.90
23738;DHT22;12049;51.068;3.688;2022-09-21T09:40:10;30.40;99.90
23738;DHT22;12049;51.068;3.688;2022-09-21T09:45:08;31.20;99.90
23738;DHT22;12049;51.068;3.688;2022-09-21T09:47:44;31.50;99.80
23738;DHT22;12049;51.068;3.688;2022-09-21T09:52:42;31.90;99.80
23738;DHT22;12049;51.068;3.688;2022-09-21T09:55:55;32.10;98.90
23738;DHT22;12049;51.068;3.688;2022-09-21T09:57:56;32.30;99.10
23738;DHT22;12049;51.068;3.688;2022-09-21T10:00:23;32.40;99.00
23738;DHT22;12049;51.068;3.688;2022-09-21T10:02:52;32.70;98.80
23738;DHT22;12049;51.068;3.688;2022-09-21T10:05:36;33.00;98.20
23738;DHT22;12049;51.068;3.688;2022-09-21T10:08:02;33.10;97.30
23738;DHT22;12049;51.068;3.688;2022-09-21T10:15:38;32.80;95.80
23738;DHT22;12049;51.068;3.688;2022-09-21T10:18:14;32.80;94.60
23738;DHT22;12049;51.068;3.688;2022-09-21T10:20:50;32.80;94.50
23738;DHT22;12049;51.068;3.688;2022-09-21T10:23:17;32.50;95.50
23738;DHT22;12049;51.068;3.688;2022-09-21T10:25:42;32.40;95.20
23738;DHT22;12049;51.068;3.688;2022-09-21T10:28:08;32.30;95.30
23738;DHT22;12049;51.068;3.688;2022-09-21T10:30:36;32.40;95.10
23738;DHT22;12049;51.068;3.688;2022-09-21T10:33:05;32.30;94.40
23738;DHT22;12049;51.068;3.688;2022-09-21T10:35:49;32.00;94.70
23738;DHT22;12049;51.068;3.688;2022-09-21T10:38:19;32.00;95.90
23738;DHT22;12049;51.068;3.688;2022-09-21T10:40:45;32.00;94.50
23738;DHT22;12049;51.068;3.688;2022-09-21T10:45:55;32.20;94.70
23738;DHT22;12049;51.068;3.688;2022-09-21T10:48:22;32.10;94.60
23738;DHT22;12049;51.068;3.688;2022-09-21T10:50:48;32.20;93.50
23738;DHT22;12049;51.068;3.688;2022-09-21T10:55:44;32.20;94.00
23738;DHT22;12049;51.068;3.688;2022-09-21T10:58:12;32.00;92.80
23738;DHT22;12049;51.068;3.688;2022-09-21T11:00:45;32.00;94.50
23738;DHT22;12049;51.068;3.688;2022-09-21T11:05:58;32.40;94.10
23738;DHT22;12049;51.068;3.688;2022-09-21T11:08:32;32.60;92.60
23738;DHT22;12049;51.068;3.688;2022-09-21T11:13:45;32.20;91.60
23738;DHT22;12049;51.068;3.688;2022-09-21T11:21:14;31.20;92.30
23738;DHT22;12049;51.068;3.688;2022-09-21T11:31:18;30.10;92.70
23738;DHT22;12049;51.068;3.688;2022-09-21T11:44:09;28.50;95.50
23738;DHT22;12049;51.068;3.688;2022-09-21T12:00:16;27.70;93.40
23738;DHT22;12049;51.068;3.688;2022-09-21T12:07:57;26.20;94.60
23738;DHT22;12049;51.068;3.688;2022-09-21T12:10:42;25.60;95.30
23738;DHT22;12049;51.068;3.688;2022-09-21T12:18:45;23.80;97.00
23738;DHT22;12049;51.068;3.688;2022-09-21T12:21:23;23.50;98.80
23738;DHT22;12049;51.068;3.688;2022-09-21T12:23:58;23.30;99.60
23738;DHT22;12049;51.068;3.688;2022-09-21T12:26:31;23.40;99.10
23738;DHT22;12049;51.068;3.688;2022-09-21T12:29:01;23.20;99.30
23738;DHT22;12049;51.068;3.688;2022-09-21T12:31:29;23.20;99.90
23738;DHT22;12049;51.068;3.688;2022-09-21T12:33:56;23.40;99.90
23738;DHT22;12049;51.068;3.688;2022-09-21T12:36:28;23.20;99.50
23738;DHT22;12049;51.068;3.688;2022-09-21T12:38:58;22.90;99.90
23738;DHT22;12049;51.068;3.688;2022-09-21T12:47:00;22.10;99.90
23738;DHT22;12049;51.068;3.688;2022-09-21T12:49:35;22.10;99.90
23738;DHT22;12049;51.068;3.688;2022-09-21T12:52:03;22.10;99.90
23738;DHT22;12049;51.068;3.688;2022-09-21T12:54:38;22.20;99.90
23738;DHT22;12049;51.068;3.688;2022-09-21T13:02:21;23.20;99.90
23738;DHT22;12049;51.068;3.688;2022-09-21T13:04:54;23.00;99.90
23738;DHT22;12049;51.068;3.688;2022-09-21T13:09:47;22.30;99.90
23738;DHT22;12049;51.068;3.688;2022-09-21T13:12:15;22.00;99.90
23738;DHT22;12049;51.068;3.688;2022-09-21T13:14:46;21.80;99.90
23738;DHT22;12049;51.068;3.688;2022-09-21T13:17:23;21.50;99.90
23738;DHT22;12049;51.068;3.688;2022-09-21T13:19:57;21.30;99.90
23738;DHT22;12049;51.068;3.688;2022-09-21T13:22:24;21.20;99.90
23738;DHT22;12049;51.068;3.688;2022-09-21T13:24:58;21.20;99.90
23738;DHT22;12049;51.068;3.688;2022-09-21T13:32:54;21.60;99.90
23738;DHT22;12049;51.068;3.688;2022-09-21T13:48:59;20.60;99.90
23738;DHT22;12049;51.068;3.688;2022-09-21T13:51:26;20.40;99.90
23738;DHT22;12049;51.068;3.688;2022-09-21T13:53:53;20.20;99.90
23738;DHT22;12049;51.068;3.688;2022-09-21T13:56:23;20.10;99.90
23738;DHT22;12049;51.068;3.688;2022-09-21T13:58:49;19.90;99.90
23738;DHT22;12049;51.068;3.688;2022-09-21T14:03:46;19.70;99.90
23738;DHT22;12049;51.068;3.688;2022-09-21T14:06:15;19.70;99.90
23738;DHT22;12049;51.068;3.688;2022-09-21T14:08:46;19.70;99.90
23738;DHT22;12049;51.068;3.688;2022-09-21T14:11:15;19.70;99.90
23738;DHT22;12049;51.068;3.688;2022-09-21T14:13:42;20.00;99.90
23738;DHT22;12049;51.068;3.688;2022-09-21T14:18:53;20.50;99.90
23738;DHT22;12049;51.068;3.688;2022-09-21T14:21:19;20.70;99.90
23738;DHT22;12049;51.068;3.688;2022-09-21T14:26:48;20.70;99.90
23738;DHT22;12049;51.068;3.688;2022-09-21T14:29:15;20.50;99.90
23738;DHT22;12049;51.068;3.688;2022-09-21T14:31:45;20.40;99.90
23738;DHT22;12049;51.068;3.688;2022-09-21T14:34:14;20.20;99.90
23738;DHT22;12049;51.068;3.688;2022-09-21T14:36:42;20.10;99.90
23738;DHT22;12049;51.068;3.688;2022-09-21T14:39:27;20.00;99.90
23738;DHT22;12049;51.068;3.688;2022-09-21T14:41:54;19.90;99.90
23738;DHT22;12049;51.068;3.688;2022-09-21T14:44:23;19.70;99.90
23738;DHT22;12049;51.068;3.688;2022-09-21T14:57:35;19.30;99.90
23738;DHT22;12049;51.068;3.688;2022-09-21T15:02:28;19.40;99.90
23738;DHT22;12049;51.068;3.688;2022-09-21T15:13:23;19.70;99.90
23738;DHT22;12049;51.068;3.688;2022-09-21T15:18:21;19.80;99.90
23738;DHT22;12049;51.068;3.688;2022-09-21T15:20:54;19.80;99.90
23738;DHT22;12049;51.068;3.688;2022-09-21T15:23:25;19.70;99.90
23738;DHT22;12049;51.068;3.688;2022-09-21T15:25:52;19.60;99.90
23738;DHT22;12049;51.068;3.688;2022-09-21T15:28:24;19.50;99.90
23738;DHT22;12049;51.068;3.688;2022-09-21T15:30:55;19.40;99.90
23738;DHT22;12049;51.068;3.688;2022-09-21T15:33:21;19.30;99.90
23738;DHT22;12049;51.068;3.688;2022-09-21T15:35:46;19.20;99.90
23738;DHT22;12049;51.068;3.688;2022-09-21T15:38:31;19.00;99.90
23738;DHT22;12049;51.068;3.688;2022-09-21T15:40:58;18.90;99.90
23738;DHT22;12049;51.068;3.688;2022-09-21T15:43:24;18.80;99.90
23738;DHT22;12049;51.068;3.688;2022-09-21T15:45:55;18.70;99.90
23738;DHT22;12049;51.068;3.688;2022-09-21T15:48:22;18.70;99.90
23738;DHT22;12049;51.068;3.688;2022-09-21T15:50:58;18.60;99.90
23738;DHT22;12049;51.068;3.688;2022-09-21T15:53:27;18.60;99.90
23738;DHT22;12049;51.068;3.688;2022-09-21T15:55:55;18.50;99.90
23738;DHT22;12049;51.068;3.688;2022-09-21T15:58:28;18.40;99.90
23738;DHT22;12049;51.068;3.688;2022-09-21T16:00:55;18.40;99.90
23738;DHT22;12049;51.068;3.688;2022-09-21T16:03:24;18.40;99.90
23738;DHT22;12049;51.068;3.688;2022-09-21T16:05:51;18.40;99.90
23738;DHT22;12049;51.068;3.688;2022-09-21T16:08:20;18.60;99.90
23738;DHT22;12049;51.068;3.688;2022-09-21T16:10:47;18.60;99.90
23738;DHT22;12049;51.068;3.688;2022-09-21T16:13:22;18.60;99.90
23738;DHT22;12049;51.068;3.688;2022-09-21T16:16:11;18.60;99.90
23738;DHT22;12049;51.068;3.688;2022-09-21T16:18:41;18.60;99.90
23738;DHT22;12049;51.068;3.688;2022-09-21T16:23:40;18.60;99.90
23738;DHT22;12049;51.068;3.688;2022-09-21T16:26:15;18.60;99.90
23738;DHT22;12049;51.068;3.688;2022-09-21T16:28:42;18.60;99.90
23738;DHT22;12049;51.068;3.688;2022-09-21T16:31:21;18.60;99.90
23738;DHT22;12049;51.068;3.688;2022-09-21T16:38:44;18.40;99.90
23738;DHT22;12049;51.068;3.688;2022-09-21T16:41:14;18.30;99.90
23738;DHT22;12049;51.068;3.688;2022-09-21T16:43:39;18.20;99.90
23738;DHT22;12049;51.068;3.688;2022-09-21T16:46:13;18.20;99.90
23738;DHT22;12049;51.068;3.688;2022-09-21T16:48:39;18.20;99.90
23738;DHT22;12049;51.068;3.688;2022-09-21T16:51:08;18.20;99.90
23738;DHT22;12049;51.068;3.688;2022-09-21T16:53:34;18.10;99.90
23738;DHT22;12049;51.068;3.688;2022-09-21T16:56:00;18.00;99.90
23738;DHT22;12049;51.068;3.688;2022-09-21T16:58:25;18.00;99.90
23738;DHT22;12049;51.068;3.688;2022-09-21T17:00:51;17.90;99.90
23738;DHT22;12049;51.068;3.688;2022-09-21T17:03:18;17.80;99.90
23738;DHT22;12049;51.068;3.688;2022-09-21T17:05:44;17.80;99.90
23738;DHT22;12049;51.068;3.688;2022-09-21T17:08:09;17.80;99.90
23738;DHT22;12049;51.068;3.688;2022-09-21T17:10:36;17.70;99.90
23738;DHT22;12049;51.068;3.688;2022-09-21T17:13:03;17.60;99.90
23738;DHT22;12049;51.068;3.688;2022-09-21T17:15:31;17.60;99.90
23738;DHT22;12049;51.068;3.688;2022-09-21T17:17:58;17.50;99.90
23738;DHT22;12049;51.068;3.688;2022-09-21T17:20:32;17.50;99.90
23738;DHT22;12049;51.068;3.688;2022-09-21T17:22:58;17.40;99.90
23738;DHT22;12049;51.068;3.688;2022-09-21T17:25:26;17.40;99.90
23738;DHT22;12049;51.068;3.688;2022-09-21T17:27:52;17.30;99.90
23738;DHT22;12049;51.068;3.688;2022-09-21T17:30:17;17.30;99.90
23738;DHT22;12049;51.068;3.688;2022-09-21T17:32:44;17.20;99.90
23738;DHT22;12049;51.068;3.688;2022-09-21T17:35:15;17.20;99.90
23738;DHT22;12049;51.068;3.688;2022-09-21T17:37:42;17.10;99.90
23738;DHT22;12049;51.068;3.688;2022-09-21T17:40:07;17.10;99.90
23738;DHT22;12049;51.068;3.688;2022-09-21T17:42:33;17.00;99.90
23738;DHT22;12049;51.068;3.688;2022-09-21T17:47:46;16.80;99.90
23738;DHT22;12049;51.068;3.688;2022-09-21T17:50:16;16.70;99.90
23738;DHT22;12049;51.068;3.688;2022-09-21T17:52:43;16.70;99.90
23738;DHT22;12049;51.068;3.688;2022-09-21T17:55:28;16.60;99.90
23738;DHT22;12049;51.068;3.688;2022-09-21T18:00:30;16.40;99.90
23738;DHT22;12049;51.068;3.688;2022-09-21T18:02:58;16.40;99.90
23738;DHT22;12049;51.068;3.688;2022-09-21T18:05:25;16.30;99.90
23738;DHT22;12049;51.068;3.688;2022-09-21T18:07:51;16.30;99.90
23738;DHT22;12049;51.068;3.688;2022-09-21T18:10:20;16.20;99.90
23738;DHT22;12049;51.068;3.688;2022-09-21T18:15:34;16.10;99.90
23738;DHT22;12049;51.068;3.688;2022-09-21T18:18:06;16.00;99.90
23738;DHT22;12049;51.068;3.688;2022-09-21T18:25:39;15.90;99.90
23738;DHT22;12049;51.068;3.688;2022-09-21T18:38:52;15.70;99.90
23738;DHT22;12049;51.068;3.688;2022-09-21T18:41:29;15.70;99.90
23738;DHT22;12049;51.068;3.688;2022-09-21T18:43:59;15.70;99.90
23738;DHT22;12049;51.068;3.688;2022-09-21T18:51:48;15.60;99.90
23738;DHT22;12049;51.068;3.688;2022-09-21T18:54:21;15.50;99.90
23738;DHT22;12049;51.068;3.688;2022-09-21T18:56:47;15.50;99.90
23738;DHT22;12049;51.068;3.688;2022-09-21T18:59:13;15.40;99.90
23738;DHT22;12049;51.068;3.688;2022-09-21T19:01:40;15.40;99.90
23738;DHT22;12049;51.068;3.688;2022-09-21T19:04:06;15.30;99.90
23738;DHT22;12049;51.068;3.688;2022-09-21T19:09:19;15.30;99.90
23738;DHT22;12049;51.068;3.688;2022-09-21T19:11:52;15.20;99.90
23738;DHT22;12049;51.068;3.688;2022-09-21T19:27:33;15.00;99.90
23738;DHT22;12049;51.068;3.688;2022-09-21T19:32:38;14.90;99.90
23738;DHT22;12049;51.068;3.688;2022-09-21T19:37:41;14.90;99.90
23738;DHT22;12049;51.068;3.688;2022-09-21T19:40:06;14.80;99.90
23738;DHT22;12049;51.068;3.688;2022-09-21T19:42:38;14.80;99.90
23738;DHT22;12049;51.068;3.688;2022-09-21T19:45:22;14.70;99.90
23738;DHT22;12049;51.068;3.688;2022-09-21T19:47:51;14.70;99.90